Time;durP1;ratioP1;P1;durP2;ratioP2;P2;SDS_P1;SDS_P2;PMS_P1;PMS_P2;Temp;Humidity;BMP_temperature;BMP_pressure;BME280_temperature;BME280_humidity;BME280_pressure;Samples;Min_cycle;Max_cycle;Signal;HPM_P1;HPM_P2
2022/01/11 00:01:27;;;;;;;13.23;7.85;;;;;;;-6.17;79.78;99746.53;4975520;28;20078;-77
2022/01/11 00:03:53;;;;;;;12.23;8.25;;;;;;;-6.10;80.10;99751.97;4975263;28;20061;-76
2022/01/11 00:06:31;;;;;;;11.88;7.45;;;;;;;-6.03;79.51;99749.06;4974917;28;20049;-78
2022/01/11 00:09:06;;;;;;;14.20;8.60;;;;;;;-6.02;79.56;99745.75;4991593;28;20719;-78
2022/01/11 00:11:32;;;;;;;12.93;8.20;;;;;;;-6.03;80.01;99749.94;4961180;28;20196;-76
2022/01/11 00:13:58;;;;;;;16.80;8.90;;;;;;;-5.96;80.14;99752.03;4974833;28;20034;-77
2022/01/11 00:16:23;;;;;;;13.93;8.38;;;;;;;-5.87;79.70;99755.09;4975272;28;20104;-77
2022/01/11 00:18:49;;;;;;;11.25;7.07;;;;;;;-5.82;79.32;99749.47;4991109;28;20153;-76
2022/01/11 00:21:15;;;;;;;16.00;8.82;;;;;;;-5.86;79.81;99745.91;4978286;28;20096;-76
2022/01/11 00:26:06;;;;;;;14.45;9.15;;;;;;;-5.88;79.70;99742.38;4978432;28;20046;-76
2022/01/11 00:28:32;;;;;;;13.75;8.35;;;;;;;-5.84;80.21;99741.81;4994301;28;20046;-77
2022/01/11 00:31:19;;;;;;;15.05;8.15;;;;;;;-5.72;80.23;99746.75;4997273;28;20065;-77
2022/01/11 00:33:46;;;;;;;14.15;8.40;;;;;;;-5.74;79.60;99749.16;4994495;28;20217;-78
2022/01/11 00:36:13;;;;;;;16.48;8.52;;;;;;;-5.73;79.63;99755.94;4978760;28;20030;-78
2022/01/11 00:38:40;;;;;;;;;;;;;;;-5.67;80.25;99746.25;4994393;28;20556;-79
2022/01/11 00:41:10;;;;;;;14.82;9.13;;;;;;;-5.64;79.67;99751.47;5011903;28;19917;-78
2022/01/11 00:43:36;;;;;;;15.80;9.23;;;;;;;-5.63;79.88;99754.91;4994317;28;20041;-78
2022/01/11 00:46:02;;;;;;;13.15;8.30;;;;;;;-5.65;80.46;99753.91;4994377;28;20029;-77
2022/01/11 00:48:28;;;;;;;13.32;8.50;;;;;;;-5.64;79.88;99746.41;4994091;28;20038;-77
2022/01/11 00:50:54;;;;;;;13.63;8.68;;;;;;;-5.62;79.94;99751.56;4990705;28;20544;-79
2022/01/11 00:53:20;;;;;;;13.90;7.85;;;;;;;-5.60;80.45;99746.59;4975044;28;20052;-78
2022/01/11 00:55:47;;;;;;;17.58;10.65;;;;;;;-5.63;80.50;99743.13;4978533;28;20026;-78
2022/01/11 00:58:14;;;;;;;15.45;8.63;;;;;;;-5.53;79.97;99754.66;4998102;28;20046;-77
2022/01/11 01:00:39;;;;;;;13.05;8.10;;;;;;;-5.47;79.70;99764.25;4965677;28;20111;-77
2022/01/11 01:03:05;;;;;;;16.17;9.45;;;;;;;-5.45;80.07;99773.72;4997865;28;20085;-76
2022/01/11 01:05:31;;;;;;;13.07;8.50;;;;;;;-5.48;80.32;99762.53;5015419;28;20108;-77
2022/01/11 01:07:59;;;;;;;13.52;8.55;;;;;;;-5.46;79.75;99771.06;4981860;28;20405;-78
2022/01/11 01:10:26;;;;;;;12.65;7.30;;;;;;;-5.40;80.21;99766.41;4982130;28;20046;-78
2022/01/11 01:12:54;;;;;;;15.90;8.98;;;;;;;-5.36;80.25;99770.81;5013970;28;20446;-78
2022/01/11 01:15:21;;;;;;;13.32;8.45;;;;;;;-5.33;79.95;99768.50;4997545;28;20033;-78
2022/01/11 01:17:47;;;;;;;15.63;8.65;;;;;;;-5.32;79.94;99774.44;4965838;28;20022;-78
2022/01/11 01:20:13;;;;;;;13.40;8.13;;;;;;;-5.33;79.94;99773.56;4997685;28;20492;-78
2022/01/11 01:22:39;;;;;;;15.63;8.48;;;;;;;-5.30;80.00;99771.22;4997422;28;20041;-78
2022/01/11 01:25:05;;;;;;;13.98;7.88;;;;;;;-5.31;79.89;99777.06;4997393;28;20026;-78
2022/01/11 01:27:31;;;;;;;16.05;8.60;;;;;;;-5.27;80.12;99768.84;4981741;28;20386;-77
2022/01/11 01:29:57;;;;;;;12.35;7.35;;;;;;;-5.24;80.08;99771.56;5013956;28;20045;-77
2022/01/11 01:32:24;;;;;;;14.80;8.52;;;;;;;-5.30;80.29;99768.69;5013836;28;20053;-77
2022/01/11 01:34:50;;;;;;;13.63;7.85;;;;;;;-5.26;79.88;99772.28;4981635;28;20038;-78
2022/01/11 01:37:16;;;;;;;14.05;8.23;;;;;;;-5.26;80.01;99764.69;4980919;28;20049;-77
2022/01/11 01:39:42;;;;;;;13.52;8.00;;;;;;;-5.26;80.43;99772.28;4997327;28;20041;-77
2022/01/11 01:42:11;;;;;;;15.95;7.82;;;;;;;-5.24;80.41;99771.56;4997233;28;20037;-78
2022/01/11 01:44:37;;;;;;;15.48;8.43;;;;;;;-5.22;80.18;99780.16;4997419;28;20164;-79
2022/01/11 01:47:02;;;;;;;;;;;;;;;-5.16;79.96;99777.97;4965154;28;20053;-78
2022/01/11 01:49:29;;;;;;;13.90;6.78;;;;;;;-5.07;80.19;99781.84;4980769;28;20008;-78
2022/01/11 01:51:55;;;;;;;14.85;9.50;;;;;;;-5.09;79.99;99778.31;5013545;28;20405;-79
2022/01/11 01:54:23;;;;;;;16.92;8.55;;;;;;;-5.08;79.97;99780.09;4996791;28;20038;-79
2022/01/11 01:56:48;;;;;;;15.90;8.75;;;;;;;-5.10;80.00;99774.94;4996757;28;20064;-78
2022/01/11 01:59:14;;;;;;;14.02;8.18;;;;;;;-5.03;79.11;99783.78;4980662;28;20521;-78
2022/01/11 02:01:45;;;;;;;12.70;7.47;;;;;;;-5.01;80.09;99787.25;4996771;28;20088;-78
2022/01/11 02:04:11;;;;;;;13.55;8.13;;;;;;;-5.02;79.79;99781.31;5012833;28;20532;-78
2022/01/11 02:06:37;;;;;;;15.60;8.57;;;;;;;-5.03;80.31;99781.25;4996292;28;20061;-78
2022/01/11 02:09:03;;;;;;;16.98;9.88;;;;;;;-5.06;79.98;99784.44;5013997;28;20421;-77
2022/01/11 02:11:28;;;;;;;16.40;7.85;;;;;;;-5.03;80.10;99786.31;4980007;28;20527;-78
2022/01/11 02:13:54;;;;;;;16.98;8.65;;;;;;;-5.02;79.67;99781.31;4996548;28;20090;-77
2022/01/11 02:16:22;;;;;;;15.90;8.98;;;;;;;-4.96;80.19;99790.94;4980239;28;20807;-77
2022/01/11 02:18:52;;;;;;;15.50;7.68;;;;;;;-4.97;79.66;99794.25;4980530;28;20528;-77
2022/01/11 02:21:19;;;;;;;14.20;7.70;;;;;;;-4.91;79.74;99800.53;4996452;28;20042;-77
2022/01/11 02:23:45;;;;;;;14.77;7.38;;;;;;;-4.88;79.93;99792.25;4996394;28;20036;-78
2022/01/11 02:26:11;;;;;;;11.45;6.47;;;;;;;-4.86;79.54;99785.63;4996325;28;20048;-76
2022/01/11 02:28:40;;;;;;;13.50;7.03;;;;;;;-4.85;78.69;99789.91;4964770;28;20032;-76
2022/01/11 02:31:12;;;;;;;14.05;7.65;;;;;;;-4.78;79.55;99792.00;4996108;28;20053;-77
2022/01/11 02:33:43;;;;;;;11.68;6.88;;;;;;;-4.80;79.30;99783.47;5012204;28;20038;-77
2022/01/11 02:36:38;;;;;;;14.52;7.63;;;;;;;-4.80;79.14;99797.78;5008744;28;20045;-78
2022/01/11 02:39:19;;;;;;;11.93;7.55;;;;;;;-4.87;79.15;99783.88;5011807;28;20030;-77
2022/01/11 02:41:54;;;;;;;15.27;7.78;;;;;;;-4.86;79.18;99798.28;4996311;28;20103;-77
2022/01/11 02:44:28;;;;;;;12.13;7.30;;;;;;;-4.87;79.54;99799.06;4996936;28;20072;-79
2022/01/11 02:46:55;;;;;;;13.95;7.18;;;;;;;-4.85;79.44;99792.44;4996115;28;20076;-77
2022/01/11 02:49:24;;;;;;;13.77;8.45;;;;;;;-4.90;79.29;99797.25;4996109;28;20045;-76
2022/01/11 02:51:55;;;;;;;13.95;8.15;;;;;;;-4.95;79.38;99803.69;4996802;28;20049;-77
2022/01/11 02:54:22;;;;;;;13.95;5.80;;;;;;;-4.89;79.48;99804.03;4979791;28;20493;-77
2022/01/11 02:56:51;;;;;;;10.70;6.40;;;;;;;-4.81;79.36;99817.16;4996159;28;20093;-78
2022/01/11 02:59:17;;;;;;;11.70;6.00;;;;;;;-4.86;78.69;99813.44;5012293;28;20141;-78
2022/01/11 03:01:43;;;;;;;12.32;6.75;;;;;;;-4.84;78.63;99805.97;4995581;28;20478;-78
2022/01/11 03:04:09;;;;;;;9.93;5.90;;;;;;;-4.61;78.37;99816.66;4979784;28;20111;-78
2022/01/11 03:06:35;;;;;;;12.20;6.18;;;;;;;-4.62;77.53;99819.97;4995598;28;20085;-78
2022/01/11 03:09:00;;;;;;;11.65;6.30;;;;;;;-4.61;77.05;99826.78;4979106;28;20034;-78
2022/01/11 03:11:32;;;;;;;9.50;4.85;;;;;;;-4.64;76.99;99815.59;4995136;28;20057;-78
2022/01/11 03:14:00;;;;;;;11.75;6.47;;;;;;;-4.60;76.76;99825.97;4980812;28;20074;-78
2022/01/11 03:16:26;;;;;;;10.35;5.82;;;;;;;-4.50;77.25;99829.91;4995216;28;20470;-76
2022/01/11 03:18:51;;;;;;;10.55;5.50;;;;;;;-4.59;76.32;99834.44;4994450;28;20041;-78
2022/01/11 03:21:17;;;;;;;10.40;6.05;;;;;;;-4.75;75.92;99832.69;4995061;28;20045;-78
2022/01/11 03:23:43;;;;;;;;;;;;;;;-4.67;77.16;99836.56;4995976;28;20140;-79
2022/01/11 03:26:09;;;;;;;10.70;6.05;;;;;;;-4.69;76.02;99838.09;4979601;28;19992;-77
2022/01/11 03:28:37;;;;;;;9.35;5.40;;;;;;;-4.74;75.87;99839.50;4995230;28;20038;-77
2022/01/11 03:31:03;;;;;;;9.95;5.95;;;;;;;-4.80;75.79;99845.84;4961455;28;20034;-78
2022/01/11 03:33:35;;;;;;;11.18;5.85;;;;;;;-4.89;75.84;99844.53;4965544;28;20050;-79
2022/01/11 03:36:01;;;;;;;11.93;6.68;;;;;;;-4.79;76.38;99856.06;5011518;28;20037;-78
2022/01/11 03:38:27;;;;;;;10.45;6.13;;;;;;;-4.78;75.63;99850.22;4978840;28;20049;-77
2022/01/11 03:41:00;;;;;;;12.65;6.50;;;;;;;-4.84;75.55;99867.56;4995786;28;20420;-77
2022/01/11 03:43:26;;;;;;;10.05;6.13;;;;;;;-4.98;75.82;99869.28;5012364;28;20046;-76
2022/01/11 03:45:52;;;;;;;10.68;6.40;;;;;;;-4.94;75.94;99867.81;5011198;28;20033;-78
2022/01/11 03:48:19;;;;;;;10.50;5.82;;;;;;;-4.82;75.29;99865.13;4978914;28;20087;-79
2022/01/11 03:50:53;;;;;;;9.27;5.88;;;;;;;-4.87;74.90;99867.38;4995049;28;20030;-79
2022/01/11 03:53:43;;;;;;;12.75;6.55;;;;;;;-4.88;74.79;99873.22;4983515;28;20493;-79
2022/01/11 03:56:21;;;;;;;11.57;6.78;;;;;;;-5.06;74.39;99882.22;4979830;28;20049;-82
2022/01/11 03:58:50;;;;;;;10.65;6.75;;;;;;;-5.08;75.17;99871.16;4998726;28;20045;-80
2022/01/11 04:01:17;;;;;;;12.38;6.80;;;;;;;-5.00;75.05;99883.47;4999731;28;20582;-81
2022/01/11 04:03:43;;;;;;;10.65;6.32;;;;;;;-5.08;75.03;99886.34;4979543;28;20041;-78
2022/01/11 04:06:09;;;;;;;15.40;7.82;;;;;;;-5.22;75.55;99875.38;4995148;28;20425;-78
2022/01/11 04:08:35;;;;;;;12.00;7.32;;;;;;;-5.18;75.58;99887.41;4994781;28;20046;-78
2022/01/11 04:11:00;;;;;;;12.02;7.25;;;;;;;-5.09;75.16;99884.56;4962693;28;20042;-79
2022/01/11 04:13:26;;;;;;;13.48;7.30;;;;;;;-5.16;74.65;99893.44;5010749;28;20046;-79
2022/01/11 04:15:52;;;;;;;;;;;;;;;-5.07;74.88;99903.25;4995366;28;20088;-79
2022/01/11 04:18:18;;;;;;;10.18;5.45;;;;;;;-5.12;74.80;99901.31;4994671;28;20303;-77
2022/01/11 04:20:44;;;;;;;12.88;8.05;;;;;;;-5.29;75.29;99906.97;4994952;28;20030;-80
2022/01/11 04:23:12;;;;;;;16.25;8.52;;;;;;;-5.29;75.58;99909.50;4994584;28;20504;-78
2022/01/11 04:25:38;;;;;;;14.00;8.18;;;;;;;-5.27;75.95;99902.00;4994658;28;20087;-82
2022/01/11 04:28:04;;;;;;;15.07;8.52;;;;;;;-5.22;75.17;99909.13;4978174;28;20100;-78
2022/01/11 04:30:30;;;;;;;14.23;7.78;;;;;;;-5.13;75.33;99913.88;4979385;28;20537;-77
2022/01/11 04:32:56;;;;;;;13.77;7.88;;;;;;;-5.14;75.55;99917.16;5014537;28;20050;-77
2022/01/11 04:35:22;;;;;;;16.40;9.38;;;;;;;-5.16;74.75;99919.59;4998058;28;20061;-77
2022/01/11 04:37:47;;;;;;;16.17;8.55;;;;;;;-5.14;74.45;99924.75;4981831;28;20041;-77
2022/01/11 04:40:13;;;;;;;;;;;;;;;-5.15;73.92;99923.88;4998239;28;20120;-77
2022/01/11 04:42:41;;;;;;;;;;;;;;;-5.28;73.47;99921.34;5014575;28;19921;-77
2022/01/11 04:45:09;;;;;;;18.55;9.57;;;;;;;-5.38;73.34;99922.44;4997890;28;19923;-77
2022/01/11 04:47:35;;;;;;;13.48;7.40;;;;;;;-5.50;74.48;99930.91;4998114;28;20045;-77
2022/01/11 04:50:01;;;;;;;17.88;9.00;;;;;;;-5.49;73.63;99933.53;4997905;28;20040;-77
2022/01/11 04:52:26;;;;;;;14.52;7.47;;;;;;;-5.44;73.18;99941.41;5013746;28;20752;-78
2022/01/11 04:54:52;;;;;;;14.70;7.63;;;;;;;-5.44;72.72;99936.38;4997916;28;20030;-78
2022/01/11 04:57:18;;;;;;;13.30;7.13;;;;;;;-5.46;72.32;99942.97;5012949;28;20065;-78
2022/01/11 04:59:43;;;;;;;12.50;7.35;;;;;;;-5.57;72.08;99952.41;4996776;28;20413;-77
2022/01/11 05:02:09;;;;;;;14.48;8.35;;;;;;;-5.75;71.99;99956.25;5014058;28;20046;-77
2022/01/11 05:04:37;;;;;;;13.50;8.10;;;;;;;-5.77;72.28;99961.22;4981776;28;20103;-77
2022/01/11 05:07:03;;;;;;;13.57;7.85;;;;;;;-5.75;73.17;99964.72;4997790;28;20045;-77
2022/01/11 05:09:29;;;;;;;14.10;8.35;;;;;;;-5.67;72.89;99961.03;5013831;28;20037;-78
2022/01/11 05:11:55;;;;;;;14.52;7.35;;;;;;;-5.77;72.38;99966.28;4997562;28;20050;-77
2022/01/11 05:14:21;;;;;;;13.73;7.47;;;;;;;-5.60;72.61;99979.13;5013759;28;20488;-77
2022/01/11 05:16:50;;;;;;;13.77;8.48;;;;;;;-5.60;71.60;99976.59;4982822;28;20038;-77
2022/01/11 05:19:16;;;;;;;15.85;7.82;;;;;;;-5.66;71.56;99980.47;4997692;28;20393;-77
2022/01/11 05:21:44;;;;;;;11.85;7.20;;;;;;;-5.72;71.81;99980.09;4965840;28;20441;-78
2022/01/11 05:24:10;;;;;;;14.68;8.45;;;;;;;-5.84;72.16;99973.34;4981080;28;20072;-78
2022/01/11 05:26:36;;;;;;;12.43;7.57;;;;;;;-5.84;72.54;99969.16;4996908;28;20124;-78
2022/01/11 05:29:02;;;;;;;13.65;8.20;;;;;;;-5.84;73.06;99983.44;4964647;28;20384;-78
2022/01/11 05:31:28;;;;;;;17.52;8.70;;;;;;;-5.92;72.95;99993.06;4980762;28;20509;-78
2022/01/11 05:33:54;;;;;;;;;;;;;;;-5.82;72.81;99997.91;4997582;28;20092;-78
2022/01/11 05:36:20;;;;;;;15.70;8.38;;;;;;;-5.84;72.71;99988.50;4997207;28;20407;-78
2022/01/11 05:38:46;;;;;;;16.98;9.07;;;;;;;-5.80;73.35;99993.88;4997088;28;20022;-78
2022/01/11 05:41:12;;;;;;;17.25;8.48;;;;;;;-5.81;72.63;99998.81;4996211;28;20045;-78
2022/01/11 05:43:38;;;;;;;16.75;7.93;;;;;;;-5.89;72.88;100005.88;5013202;28;20374;-78
2022/01/11 05:46:06;;;;;;;19.23;9.43;;;;;;;-5.88;72.96;100000.94;4997229;28;20484;-76
2022/01/11 05:48:34;;;;;;;16.23;8.23;;;;;;;-5.84;72.64;100012.13;4981560;28;20030;-78
2022/01/11 05:51:01;;;;;;;14.13;8.13;;;;;;;-5.84;72.64;100014.63;4997063;28;20038;-77
2022/01/11 05:53:28;;;;;;;13.20;7.53;;;;;;;-5.99;72.25;99990.94;4997170;28;20040;-78
2022/01/11 05:55:54;;;;;;;12.48;7.57;;;;;;;-5.95;72.18;100005.53;4997211;28;20512;-77
2022/01/11 05:58:20;;;;;;;13.38;7.00;;;;;;;-5.97;71.93;100012.09;4980592;28;20042;-78
2022/01/11 06:00:46;;;;;;;15.93;8.55;;;;;;;-6.13;72.26;100012.75;5012890;28;20073;-78
2022/01/11 06:03:13;;;;;;;17.08;8.98;;;;;;;-6.05;72.58;100006.53;4997303;28;20129;-78
2022/01/11 06:05:45;;;;;;;11.85;6.72;;;;;;;-5.98;72.04;100010.38;4997358;28;20045;-78
2022/01/11 06:08:16;;;;;;;14.98;7.00;;;;;;;-5.92;72.10;100018.34;4996722;28;20037;-77
2022/01/11 06:10:44;;;;;;;12.43;6.68;;;;;;;-6.03;71.59;100016.75;5012520;28;20041;-77
2022/01/11 06:13:11;;;;;;;12.35;6.90;;;;;;;-5.95;72.17;100019.03;4980202;28;20034;-79
2022/01/11 06:15:37;;;;;;;;;;;;;;;-6.23;71.85;100033.06;4996832;28;20587;-78
2022/01/11 06:18:04;;;;;;;13.65;7.07;;;;;;;-6.26;72.77;100018.59;4996705;28;19964;-82
2022/01/11 06:20:34;;;;;;;16.00;8.05;;;;;;;-6.26;72.75;100031.22;4996716;28;20046;-78
2022/01/11 06:23:00;;;;;;;12.02;7.32;;;;;;;-6.24;72.91;100032.19;5012646;28;20048;-79
2022/01/11 06:25:26;;;;;;;16.15;7.70;;;;;;;-6.21;73.06;100032.41;4980443;28;20081;-78
2022/01/11 06:27:53;;;;;;;12.27;7.45;;;;;;;-6.16;73.08;100041.19;4995995;28;20049;-81
2022/01/11 06:30:18;;;;;;;13.50;6.97;;;;;;;-6.13;72.89;100040.53;4996336;28;20045;-80
2022/01/11 06:32:45;;;;;;;15.27;8.45;;;;;;;-6.24;72.77;100042.28;4980431;28;20046;-79
2022/01/11 06:35:16;;;;;;;16.17;8.77;;;;;;;-6.35;72.70;100052.44;4963996;28;20128;-78
2022/01/11 06:37:44;;;;;;;14.82;8.00;;;;;;;-6.36;73.84;100051.56;4996391;28;20033;-78
2022/01/11 06:40:12;;;;;;;19.10;8.45;;;;;;;-6.36;73.44;100056.63;4980291;28;20037;-77
2022/01/11 06:42:38;;;;;;;16.85;8.77;;;;;;;-6.42;73.36;100044.44;4979922;28;20050;-80
2022/01/11 06:45:05;;;;;;;15.93;8.48;;;;;;;-6.33;73.94;100056.81;4979669;28;20038;-78
2022/01/11 06:47:31;;;;;;;17.13;8.30;;;;;;;-6.39;73.48;100048.84;5012313;28;20137;-82
2022/01/11 06:49:57;;;;;;;14.25;8.02;;;;;;;-6.23;73.02;100053.28;5013316;28;20100;-79
2022/01/11 06:52:24;;;;;;;18.85;8.95;;;;;;;-6.29;72.87;100060.44;4996915;28;20033;-80
2022/01/11 06:54:50;;;;;;;17.23;8.20;;;;;;;-6.25;73.52;100067.44;4996964;28;20037;-80
2022/01/11 06:57:16;;;;;;;14.77;7.60;;;;;;;-6.12;73.04;100065.00;4996673;28;20108;-79
2022/01/11 06:59:43;;;;;;;17.55;8.27;;;;;;;-6.17;72.42;100072.25;4980988;28;20042;-80
2022/01/11 07:02:11;;;;;;;15.05;7.00;;;;;;;-6.11;72.76;100069.28;4981075;28;20413;-79
2022/01/11 07:04:47;;;;;;;14.43;8.50;;;;;;;-6.15;71.59;100074.88;5013479;28;20044;-80
2022/01/11 07:07:16;;;;;;;14.00;7.60;;;;;;;-6.20;71.71;100077.09;4996962;28;20057;-80
2022/01/11 07:09:42;;;;;;;15.02;7.97;;;;;;;-6.19;72.13;100076.31;4996552;28;20050;-80
2022/01/11 07:12:08;;;;;;;;;;;;;;;-6.28;71.79;100085.78;4964823;28;20029;-81
2022/01/11 07:14:36;;;;;;;18.55;8.23;;;;;;;-6.23;71.68;100081.03;5012744;28;19983;-78
2022/01/11 07:17:02;;;;;;;;;;;;;;;-6.26;71.34;100088.44;4996673;28;20054;-81
2022/01/11 07:19:29;;;;;;;19.60;9.05;;;;;;;-6.30;71.38;100087.34;5012589;28;19957;-81
2022/01/11 07:21:59;;;;;;;16.42;8.65;;;;;;;-6.35;71.43;100092.84;5012918;28;20030;-80
2022/01/11 07:24:26;;;;;;;14.75;7.55;;;;;;;-6.31;72.06;100085.59;4996748;28;20099;-79
2022/01/11 07:26:53;;;;;;;15.40;7.50;;;;;;;-6.23;71.50;100089.53;4996396;28;20037;-80
2022/01/11 07:29:19;;;;;;;18.13;8.65;;;;;;;-6.34;71.22;100089.53;4996444;28;20052;-80
2022/01/11 07:31:45;;;;;;;13.73;7.65;;;;;;;-6.32;72.03;100099.00;5012567;28;20572;-81
2022/01/11 07:34:13;;;;;;;21.05;7.78;;;;;;;-6.39;71.52;100086.69;5012579;28;20100;-81
2022/01/11 07:36:42;;;;;;;15.95;7.50;;;;;;;-6.33;71.22;100094.69;4980868;28;20037;-80
2022/01/11 07:39:08;;;;;;;14.02;6.72;;;;;;;-6.32;71.40;100099.00;4996337;28;20048;-79
2022/01/11 07:41:35;;;;;;;19.75;8.80;;;;;;;-6.40;71.16;100088.34;4980104;28;20088;-80
2022/01/11 07:44:27;;;;;;;13.32;7.78;;;;;;;-6.38;70.88;100108.63;4989990;28;20041;-80
2022/01/11 07:46:54;;;;;;;14.63;7.72;;;;;;;-6.30;71.49;100106.66;4996312;28;20042;-79
2022/01/11 07:49:28;;;;;;;18.83;8.80;;;;;;;-6.38;70.82;100093.50;4997391;28;20124;-82
2022/01/11 07:51:55;;;;;;;16.85;8.27;;;;;;;-6.30;69.90;100109.19;4979778;28;20501;-81
2022/01/11 07:54:21;;;;;;;16.35;9.38;;;;;;;-6.29;69.86;100114.31;5012282;28;20080;-81
2022/01/11 07:56:46;;;;;;;16.77;7.95;;;;;;;-6.31;70.58;100112.47;5013040;28;20061;-80
2022/01/11 07:59:14;;;;;;;14.65;7.65;;;;;;;-6.32;70.53;100114.13;4980376;28;20072;-80
2022/01/11 08:01:43;;;;;;;18.27;7.80;;;;;;;-6.39;70.51;100106.88;4996168;28;20045;-80
2022/01/11 08:04:11;;;;;;;19.33;8.60;;;;;;;-6.42;70.03;100111.72;4995587;28;20038;-80
2022/01/11 08:06:41;;;;;;;14.35;8.00;;;;;;;-6.41;70.54;100121.94;4996083;28;20468;-80
2022/01/11 08:09:15;;;;;;;12.75;6.53;;;;;;;-6.35;70.82;100124.00;4981704;28;20045;-79
2022/01/11 08:11:42;;;;;;;14.95;8.27;;;;;;;-6.42;70.88;100126.84;4995715;28;20051;-79
2022/01/11 08:14:09;;;;;;;17.30;8.00;;;;;;;-6.39;70.91;100114.47;4995900;28;20120;-79
2022/01/11 08:16:39;;;;;;;20.50;8.65;;;;;;;-6.51;70.89;100129.59;5011831;28;20041;-80
2022/01/11 08:19:05;;;;;;;14.00;7.60;;;;;;;-6.44;71.11;100120.84;5011590;28;20041;-80
2022/01/11 08:21:30;;;;;;;16.58;7.78;;;;;;;-6.33;71.01;100134.19;5013384;28;20410;-79
2022/01/11 08:23:57;;;;;;;14.65;7.25;;;;;;;-6.27;69.68;100127.94;5011702;28;20042;-80
2022/01/11 08:26:25;;;;;;;16.08;7.53;;;;;;;-6.30;69.88;100119.28;5011912;28;20121;-81
2022/01/11 08:28:51;;;;;;;30.08;9.43;;;;;;;-6.29;70.18;100131.13;4996033;28;20553;-79
2022/01/11 08:31:19;;;;;;;15.60;7.65;;;;;;;-6.28;69.01;100131.22;4980278;28;20065;-80
2022/01/11 08:33:50;;;;;;;12.43;6.38;;;;;;;-6.24;69.88;100127.25;5012469;28;20110;-80
2022/01/11 08:36:17;;;;;;;14.45;8.52;;;;;;;-6.00;69.91;100138.19;4996241;28;20042;-81
2022/01/11 08:38:43;;;;;;;14.65;8.35;;;;;;;-6.07;68.89;100129.31;4995561;28;20032;-81
2022/01/11 08:41:10;;;;;;;13.70;7.72;;;;;;;-5.88;68.20;100136.47;5011676;28;20053;-80
2022/01/11 08:43:37;;;;;;;13.75;7.22;;;;;;;-5.95;68.16;100136.88;5012626;28;20034;-80
2022/01/11 08:46:03;;;;;;;16.00;7.53;;;;;;;-6.09;68.22;100127.44;4995417;28;20065;-80
2022/01/11 08:48:32;;;;;;;14.77;6.80;;;;;;;-6.17;68.87;100130.34;4996458;28;20556;-81
2022/01/11 08:51:04;;;;;;;11.23;6.28;;;;;;;-6.09;68.85;100132.50;5011530;28;20045;-80
2022/01/11 08:53:32;;;;;;;14.43;7.60;;;;;;;-6.05;68.25;100134.47;4979764;28;20053;-80
2022/01/11 08:56:05;;;;;;;15.43;7.30;;;;;;;-6.09;68.33;100119.88;5012056;28;20054;-80
2022/01/11 08:58:34;;;;;;;11.68;5.70;;;;;;;-5.96;67.86;100130.03;4980252;28;20046;-79
2022/01/11 09:00:59;;;;;;;;;;;;;;;-6.02;66.83;100132.16;5001845;28;20042;-81
2022/01/11 09:03:29;;;;;;;15.48;7.70;;;;;;;-6.10;67.88;100135.81;4992538;28;20404;-80
2022/01/11 09:05:55;;;;;;;14.52;6.45;;;;;;;-6.17;68.17;100129.47;4976257;28;20034;-80
2022/01/11 09:08:21;;;;;;;13.07;7.30;;;;;;;-6.04;68.44;100123.63;4960088;28;20093;-80
2022/01/11 09:10:49;;;;;;;19.27;8.52;;;;;;;-5.99;67.93;100137.44;4975887;28;20069;-82
2022/01/11 09:13:15;;;;;;;12.40;5.43;;;;;;;-6.04;67.64;100121.09;4975950;28;20033;-80
2022/01/11 09:15:41;;;;;;;15.68;6.35;;;;;;;-5.99;67.18;100110.53;4960540;28;20136;-85
2022/01/11 09:18:08;;;;;;;12.75;6.03;;;;;;;-6.03;66.54;100116.13;4963279;28;20101;-80
2022/01/11 09:20:35;;;;;;;11.10;6.05;;;;;;;-5.99;67.38;100114.69;4979791;28;20613;-81
2022/01/11 09:23:02;;;;;;;10.75;5.82;;;;;;;-5.96;66.75;100127.53;4979528;28;20026;-79
2022/01/11 09:25:31;;;;;;;11.98;5.97;;;;;;;-5.74;66.20;100135.75;4964431;28;20038;-80
2022/01/11 09:28:03;;;;;;;11.15;6.07;;;;;;;-5.79;66.38;100129.50;4979927;28;20026;-79
2022/01/11 09:30:29;;;;;;;12.60;5.85;;;;;;;-5.81;66.30;100136.13;4979624;28;20417;-81
2022/01/11 09:32:56;;;;;;;10.88;5.65;;;;;;;-5.85;66.21;100129.13;4995256;28;20544;-81
2022/01/11 09:35:25;;;;;;;11.57;5.70;;;;;;;-5.77;66.14;100134.66;4963986;28;20599;-82
2022/01/11 09:37:57;;;;;;;10.90;5.47;;;;;;;-5.88;65.30;100129.75;4980263;28;20104;-81
2022/01/11 09:40:23;;;;;;;7.90;3.90;;;;;;;-5.55;66.11;100129.41;4995235;28;20046;-81
2022/01/11 09:42:57;;;;;;;13.32;5.63;;;;;;;-5.52;64.58;100127.09;4965295;28;20050;-81
2022/01/11 09:45:23;;;;;;;10.00;4.93;;;;;;;-5.62;64.79;100133.19;4997133;28;20053;-81
2022/01/11 09:47:49;;;;;;;11.45;5.78;;;;;;;-5.54;65.64;100141.28;4978743;28;20038;-80
2022/01/11 09:50:18;;;;;;;12.27;6.07;;;;;;;-5.63;64.63;100142.44;4979124;28;20118;-80
2022/01/11 09:52:52;;;;;;;13.18;5.50;;;;;;;-5.82;64.99;100128.44;4980008;28;20034;-83
2022/01/11 09:55:19;;;;;;;10.25;5.25;;;;;;;-5.68;65.20;100133.66;4963445;28;20049;-81
2022/01/11 09:57:46;;;;;;;8.45;4.72;;;;;;;-5.62;64.76;100134.06;4995114;28;20062;-81
2022/01/11 10:00:31;;;;;;;9.15;4.63;;;;;;;-5.68;64.03;100126.09;5005624;28;20049;-83
2022/01/11 10:03:10;;;;;;;8.90;4.97;;;;;;;-5.57;63.52;100125.91;4986189;28;20506;-79
2022/01/11 10:05:51;;;;;;;8.73;4.10;;;;;;;-5.53;64.13;100128.75;4972026;28;20044;-80
2022/01/11 10:08:28;;;;;;;9.77;4.75;;;;;;;-5.42;63.94;100142.09;4998451;28;20070;-80
2022/01/11 10:10:56;;;;;;;8.30;3.95;;;;;;;-5.38;63.50;100129.75;5014253;28;20042;-81
2022/01/11 10:13:39;;;;;;;8.80;5.35;;;;;;;-5.30;62.49;100137.00;5014279;28;20064;-81
2022/01/11 10:16:27;;;;;;;8.13;4.18;;;;;;;-5.20;62.31;100140.22;5013841;28;20046;-79
2022/01/11 10:18:58;;;;;;;8.00;4.40;;;;;;;-5.42;61.52;100132.00;5013793;28;20038;-80
2022/01/11 10:21:33;;;;;;;10.88;4.88;;;;;;;-5.40;61.21;100138.03;4998321;28;20065;-80
2022/01/11 10:24:01;;;;;;;10.93;4.97;;;;;;;-5.52;61.37;100135.56;4998107;28;20137;-79
2022/01/11 10:26:43;;;;;;;8.93;5.07;;;;;;;-5.82;61.23;100144.47;4998449;28;20042;-80
2022/01/11 10:29:29;;;;;;;9.35;5.00;;;;;;;-5.69;60.82;100149.56;4998867;28;20465;-83
2022/01/11 10:32:00;;;;;;;8.85;5.15;;;;;;;-5.79;60.85;100152.25;4998198;28;20420;-81
2022/01/11 10:34:28;;;;;;;11.80;4.93;;;;;;;-5.95;60.77;100155.44;4997862;28;20057;-80
2022/01/11 10:36:54;;;;;;;10.13;4.90;;;;;;;-5.96;61.83;100162.88;5015573;28;20497;-81
2022/01/11 10:39:31;;;;;;;8.52;5.03;;;;;;;-6.23;62.42;100170.31;4999049;28;20492;-79
2022/01/11 10:42:02;;;;;;;9.48;5.30;;;;;;;-6.47;62.90;100171.09;4998183;28;20132;-81
2022/01/11 10:44:43;;;;;;;13.38;6.00;;;;;;;-6.65;63.67;100163.94;5013784;28;20041;-80
2022/01/11 10:47:10;;;;;;;16.35;7.88;;;;;;;-6.57;63.41;100166.16;4997502;28;20513;-80
2022/01/11 10:49:36;;;;;;;11.77;6.30;;;;;;;-6.66;63.78;100161.34;5013614;28;20117;-81
2022/01/11 10:52:19;;;;;;;11.23;5.80;;;;;;;-6.63;63.19;100158.16;5013783;28;20037;-82
2022/01/11 10:54:49;;;;;;;;;;;;;;;-6.62;63.00;100168.34;4982831;28;20041;-80
2022/01/11 10:57:23;;;;;;;12.77;6.30;;;;;;;-6.69;62.77;100162.00;4997165;28;20029;-81
2022/01/11 11:00:22;;;;;;;8.63;5.40;;;;;;;-6.91;62.92;100169.66;4981162;28;20038;-82
2022/01/11 11:02:51;;;;;;;11.40;5.82;;;;;;;-7.24;63.98;100160.50;5012896;28;20505;-80
2022/01/11 11:05:23;;;;;;;9.35;5.53;;;;;;;-7.33;64.01;100171.53;4981433;28;20579;-82
2022/01/11 11:07:59;;;;;;;11.45;6.05;;;;;;;-7.38;63.16;100178.75;4981988;28;20046;-84
2022/01/11 11:10:31;;;;;;;8.77;5.38;;;;;;;-7.39;64.45;100182.03;5013131;28;20042;-80
2022/01/11 11:12:57;;;;;;;9.20;4.90;;;;;;;-7.38;63.66;100191.34;5014152;28;20416;-81
2022/01/11 11:15:39;;;;;;;9.05;5.25;;;;;;;-7.41;63.93;100188.63;4997699;28;20501;-82
2022/01/11 11:18:06;;;;;;;12.32;5.85;;;;;;;-7.42;63.64;100179.31;4997491;28;20044;-80
2022/01/11 11:20:38;;;;;;;12.02;5.57;;;;;;;-7.67;63.74;100187.53;4972366;28;20508;-79
2022/01/11 11:23:04;;;;;;;11.75;5.25;;;;;;;-7.73;64.03;100184.53;4980890;28;20052;-81
2022/01/11 11:25:30;;;;;;;9.45;5.00;;;;;;;-7.73;63.26;100198.78;4997118;28;20042;-80
2022/01/11 11:27:55;;;;;;;9.07;4.57;;;;;;;-7.70;63.85;100199.91;4996203;28;20034;-82
2022/01/11 11:30:21;;;;;;;9.60;5.15;;;;;;;-7.72;64.22;100200.53;4998583;28;20049;-84
2022/01/11 11:32:47;;;;;;;9.93;5.10;;;;;;;-7.68;63.80;100193.31;4966218;28;20044;-82